sensor_id;sensor_type;location;lat;lon;timestamp;P1;durP1;ratioP1;P2;durP2;ratioP2
37943;SDS011;23767;42.024;23.086;2023-11-21T00:00:12;20.90;;;12.80;;
37943;SDS011;23767;42.024;23.086;2023-11-21T00:02:39;18.92;;;13.02;;
37943;SDS011;23767;42.024;23.086;2023-11-21T00:05:09;20.85;;;12.60;;
37943;SDS011;23767;42.024;23.086;2023-11-21T00:07:38;20.98;;;12.48;;
37943;SDS011;23767;42.024;23.086;2023-11-21T00:10:04;20.42;;;12.55;;
37943;SDS011;23767;42.024;23.086;2023-11-21T00:12:31;19.77;;;12.55;;
37943;SDS011;23767;42.024;23.086;2023-11-21T00:14:58;18.52;;;11.48;;
37943;SDS011;23767;42.024;23.086;2023-11-21T00:17:24;18.83;;;12.07;;
37943;SDS011;23767;42.024;23.086;2023-11-21T00:19:50;17.48;;;11.82;;
37943;SDS011;23767;42.024;23.086;2023-11-21T00:22:17;18.95;;;11.45;;
37943;SDS011;23767;42.024;23.086;2023-11-21T00:24:43;17.38;;;10.85;;
37943;SDS011;23767;42.024;23.086;2023-11-21T00:27:10;18.95;;;12.00;;
37943;SDS011;23767;42.024;23.086;2023-11-21T00:29:36;19.55;;;12.50;;
37943;SDS011;23767;42.024;23.086;2023-11-21T00:32:02;21.73;;;12.85;;
37943;SDS011;23767;42.024;23.086;2023-11-21T00:34:28;21.23;;;13.05;;
37943;SDS011;23767;42.024;23.086;2023-11-21T00:36:54;19.05;;;12.50;;
37943;SDS011;23767;42.024;23.086;2023-11-21T00:39:20;19.05;;;12.73;;
37943;SDS011;23767;42.024;23.086;2023-11-21T00:41:46;23.92;;;14.05;;
37943;SDS011;23767;42.024;23.086;2023-11-21T00:44:13;22.25;;;14.60;;
37943;SDS011;23767;42.024;23.086;2023-11-21T00:46:39;21.17;;;14.20;;
37943;SDS011;23767;42.024;23.086;2023-11-21T00:49:05;21.08;;;12.85;;
37943;SDS011;23767;42.024;23.086;2023-11-21T00:51:31;19.48;;;12.10;;
37943;SDS011;23767;42.024;23.086;2023-11-21T00:53:58;19.00;;;11.98;;
37943;SDS011;23767;42.024;23.086;2023-11-21T00:56:24;21.95;;;13.45;;
37943;SDS011;23767;42.024;23.086;2023-11-21T00:58:50;20.63;;;12.65;;
37943;SDS011;23767;42.024;23.086;2023-11-21T01:01:17;16.13;;;10.52;;
37943;SDS011;23767;42.024;23.086;2023-11-21T01:03:45;15.68;;;10.57;;
37943;SDS011;23767;42.024;23.086;2023-11-21T01:06:11;17.17;;;9.75;;
37943;SDS011;23767;42.024;23.086;2023-11-21T01:08:37;18.23;;;10.82;;
37943;SDS011;23767;42.024;23.086;2023-11-21T01:11:03;18.20;;;11.70;;
37943;SDS011;23767;42.024;23.086;2023-11-21T01:13:34;21.05;;;11.73;;
37943;SDS011;23767;42.024;23.086;2023-11-21T01:16:01;14.50;;;9.57;;
37943;SDS011;23767;42.024;23.086;2023-11-21T01:18:27;13.13;;;8.63;;
37943;SDS011;23767;42.024;23.086;2023-11-21T01:20:54;15.65;;;8.00;;
37943;SDS011;23767;42.024;23.086;2023-11-21T01:23:20;11.50;;;7.65;;
37943;SDS011;23767;42.024;23.086;2023-11-21T01:25:46;15.88;;;8.98;;
37943;SDS011;23767;42.024;23.086;2023-11-21T01:28:12;13.10;;;8.13;;
37943;SDS011;23767;42.024;23.086;2023-11-21T01:30:38;17.33;;;11.07;;
37943;SDS011;23767;42.024;23.086;2023-11-21T01:33:04;15.60;;;9.85;;
37943;SDS011;23767;42.024;23.086;2023-11-21T01:35:30;19.08;;;9.98;;
37943;SDS011;23767;42.024;23.086;2023-11-21T01:37:56;17.02;;;9.48;;
37943;SDS011;23767;42.024;23.086;2023-11-21T01:40:22;17.52;;;11.10;;
37943;SDS011;23767;42.024;23.086;2023-11-21T01:42:49;18.48;;;12.00;;
37943;SDS011;23767;42.024;23.086;2023-11-21T01:45:15;18.17;;;10.80;;
37943;SDS011;23767;42.024;23.086;2023-11-21T01:47:41;16.30;;;10.32;;
37943;SDS011;23767;42.024;23.086;2023-11-21T01:50:08;16.15;;;10.10;;
37943;SDS011;23767;42.024;23.086;2023-11-21T01:52:37;22.98;;;10.70;;
37943;SDS011;23767;42.024;23.086;2023-11-21T01:55:04;15.52;;;10.60;;
37943;SDS011;23767;42.024;23.086;2023-11-21T01:57:33;16.10;;;10.05;;
37943;SDS011;23767;42.024;23.086;2023-11-21T01:59:59;16.45;;;10.07;;
37943;SDS011;23767;42.024;23.086;2023-11-21T02:02:40;14.88;;;9.57;;
37943;SDS011;23767;42.024;23.086;2023-11-21T02:05:06;15.40;;;10.48;;
37943;SDS011;23767;42.024;23.086;2023-11-21T02:07:34;17.40;;;10.65;;
37943;SDS011;23767;42.024;23.086;2023-11-21T02:10:00;16.10;;;9.90;;
37943;SDS011;23767;42.024;23.086;2023-11-21T02:12:27;18.85;;;10.45;;
37943;SDS011;23767;42.024;23.086;2023-11-21T02:14:53;19.05;;;11.07;;
37943;SDS011;23767;42.024;23.086;2023-11-21T02:17:19;17.48;;;10.15;;
37943;SDS011;23767;42.024;23.086;2023-11-21T02:19:45;14.52;;;9.63;;
37943;SDS011;23767;42.024;23.086;2023-11-21T02:22:12;17.05;;;10.60;;
37943;SDS011;23767;42.024;23.086;2023-11-21T02:24:41;15.18;;;9.85;;
37943;SDS011;23767;42.024;23.086;2023-11-21T02:27:07;14.70;;;9.45;;
37943;SDS011;23767;42.024;23.086;2023-11-21T02:29:33;14.52;;;8.60;;
37943;SDS011;23767;42.024;23.086;2023-11-21T02:31:59;12.50;;;7.53;;
37943;SDS011;23767;42.024;23.086;2023-11-21T02:34:25;12.25;;;7.35;;
37943;SDS011;23767;42.024;23.086;2023-11-21T02:36:51;13.68;;;6.97;;
37943;SDS011;23767;42.024;23.086;2023-11-21T02:39:18;13.27;;;6.90;;
37943;SDS011;23767;42.024;23.086;2023-11-21T02:41:48;11.80;;;6.47;;
37943;SDS011;23767;42.024;23.086;2023-11-21T02:44:15;10.57;;;5.68;;
37943;SDS011;23767;42.024;23.086;2023-11-21T02:46:41;10.43;;;5.85;;
37943;SDS011;23767;42.024;23.086;2023-11-21T02:49:07;10.45;;;6.20;;
37943;SDS011;23767;42.024;23.086;2023-11-21T02:51:35;9.93;;;6.32;;
37943;SDS011;23767;42.024;23.086;2023-11-21T02:54:01;9.82;;;6.20;;
37943;SDS011;23767;42.024;23.086;2023-11-21T02:56:31;8.68;;;5.40;;
37943;SDS011;23767;42.024;23.086;2023-11-21T02:58:58;9.02;;;5.35;;
37943;SDS011;23767;42.024;23.086;2023-11-21T03:01:25;11.00;;;5.30;;
37943;SDS011;23767;42.024;23.086;2023-11-21T03:03:51;8.63;;;4.85;;
37943;SDS011;23767;42.024;23.086;2023-11-21T03:06:18;8.90;;;4.65;;
37943;SDS011;23767;42.024;23.086;2023-11-21T03:08:44;8.73;;;4.95;;
37943;SDS011;23767;42.024;23.086;2023-11-21T03:11:10;8.23;;;5.43;;
37943;SDS011;23767;42.024;23.086;2023-11-21T03:13:37;9.05;;;4.60;;
37943;SDS011;23767;42.024;23.086;2023-11-21T03:16:04;11.65;;;4.78;;
37943;SDS011;23767;42.024;23.086;2023-11-21T03:18:31;10.40;;;4.72;;
37943;SDS011;23767;42.024;23.086;2023-11-21T03:20:57;9.77;;;5.88;;
37943;SDS011;23767;42.024;23.086;2023-11-21T03:23:23;9.23;;;6.03;;
37943;SDS011;23767;42.024;23.086;2023-11-21T03:25:49;9.68;;;5.70;;
37943;SDS011;23767;42.024;23.086;2023-11-21T03:28:15;10.35;;;5.90;;
37943;SDS011;23767;42.024;23.086;2023-11-21T03:30:41;10.65;;;6.45;;
37943;SDS011;23767;42.024;23.086;2023-11-21T03:33:07;9.10;;;5.90;;
37943;SDS011;23767;42.024;23.086;2023-11-21T03:35:33;11.43;;;6.50;;
37943;SDS011;23767;42.024;23.086;2023-11-21T03:38:00;12.75;;;6.45;;
37943;SDS011;23767;42.024;23.086;2023-11-21T03:40:26;13.82;;;7.38;;
37943;SDS011;23767;42.024;23.086;2023-11-21T03:42:52;11.82;;;7.82;;
37943;SDS011;23767;42.024;23.086;2023-11-21T03:45:18;12.45;;;7.75;;
37943;SDS011;23767;42.024;23.086;2023-11-21T03:47:44;13.57;;;7.88;;
37943;SDS011;23767;42.024;23.086;2023-11-21T03:50:10;15.50;;;8.68;;
37943;SDS011;23767;42.024;23.086;2023-11-21T03:52:36;13.38;;;6.60;;
37943;SDS011;23767;42.024;23.086;2023-11-21T03:55:03;12.45;;;7.55;;
37943;SDS011;23767;42.024;23.086;2023-11-21T03:57:29;11.70;;;7.88;;
37943;SDS011;23767;42.024;23.086;2023-11-21T03:59:55;14.45;;;8.60;;
37943;SDS011;23767;42.024;23.086;2023-11-21T04:02:21;13.77;;;8.55;;
37943;SDS011;23767;42.024;23.086;2023-11-21T04:04:47;14.13;;;8.55;;
37943;SDS011;23767;42.024;23.086;2023-11-21T04:07:13;14.98;;;9.25;;
37943;SDS011;23767;42.024;23.086;2023-11-21T04:09:40;14.88;;;9.35;;
37943;SDS011;23767;42.024;23.086;2023-11-21T04:12:06;18.38;;;9.48;;
37943;SDS011;23767;42.024;23.086;2023-11-21T04:14:34;17.40;;;10.15;;
37943;SDS011;23767;42.024;23.086;2023-11-21T04:17:00;16.20;;;10.00;;
37943;SDS011;23767;42.024;23.086;2023-11-21T04:19:26;15.60;;;9.70;;
37943;SDS011;23767;42.024;23.086;2023-11-21T04:21:52;19.30;;;10.40;;
37943;SDS011;23767;42.024;23.086;2023-11-21T04:24:18;23.17;;;12.83;;
37943;SDS011;23767;42.024;23.086;2023-11-21T04:26:44;22.20;;;11.73;;
37943;SDS011;23767;42.024;23.086;2023-11-21T04:29:10;17.88;;;9.73;;
37943;SDS011;23767;42.024;23.086;2023-11-21T04:31:36;17.43;;;9.70;;
37943;SDS011;23767;42.024;23.086;2023-11-21T04:34:03;17.33;;;9.30;;
37943;SDS011;23767;42.024;23.086;2023-11-21T04:36:29;11.37;;;7.87;;
37943;SDS011;23767;42.024;23.086;2023-11-21T04:38:59;13.20;;;8.18;;
37943;SDS011;23767;42.024;23.086;2023-11-21T04:41:25;12.18;;;7.78;;
37943;SDS011;23767;42.024;23.086;2023-11-21T04:43:51;12.05;;;8.05;;
37943;SDS011;23767;42.024;23.086;2023-11-21T04:46:17;12.60;;;7.68;;
37943;SDS011;23767;42.024;23.086;2023-11-21T04:48:43;13.38;;;7.82;;
37943;SDS011;23767;42.024;23.086;2023-11-21T04:51:09;14.05;;;8.02;;
37943;SDS011;23767;42.024;23.086;2023-11-21T04:53:38;15.82;;;8.88;;
37943;SDS011;23767;42.024;23.086;2023-11-21T04:56:04;17.75;;;10.25;;
37943;SDS011;23767;42.024;23.086;2023-11-21T04:58:30;19.60;;;10.52;;
37943;SDS011;23767;42.024;23.086;2023-11-21T05:00:57;15.73;;;9.75;;
37943;SDS011;23767;42.024;23.086;2023-11-21T05:03:24;18.50;;;9.13;;
37943;SDS011;23767;42.024;23.086;2023-11-21T05:05:50;16.27;;;9.38;;
37943;SDS011;23767;42.024;23.086;2023-11-21T05:08:16;14.82;;;9.70;;
37943;SDS011;23767;42.024;23.086;2023-11-21T05:10:42;14.27;;;9.48;;
37943;SDS011;23767;42.024;23.086;2023-11-21T05:13:08;17.23;;;9.90;;
37943;SDS011;23767;42.024;23.086;2023-11-21T05:15:35;15.57;;;9.30;;
37943;SDS011;23767;42.024;23.086;2023-11-21T05:18:01;16.42;;;9.23;;
37943;SDS011;23767;42.024;23.086;2023-11-21T05:20:28;14.77;;;9.55;;
37943;SDS011;23767;42.024;23.086;2023-11-21T05:22:54;17.95;;;9.57;;
37943;SDS011;23767;42.024;23.086;2023-11-21T05:25:20;16.77;;;10.68;;
37943;SDS011;23767;42.024;23.086;2023-11-21T05:27:46;20.45;;;11.10;;
37943;SDS011;23767;42.024;23.086;2023-11-21T05:30:13;21.75;;;11.63;;
37943;SDS011;23767;42.024;23.086;2023-11-21T05:32:39;19.08;;;12.40;;
37943;SDS011;23767;42.024;23.086;2023-11-21T05:35:07;21.02;;;13.40;;
37943;SDS011;23767;42.024;23.086;2023-11-21T05:37:40;25.42;;;13.52;;
37943;SDS011;23767;42.024;23.086;2023-11-21T05:40:07;20.00;;;13.15;;
37943;SDS011;23767;42.024;23.086;2023-11-21T05:42:33;21.92;;;12.60;;
37943;SDS011;23767;42.024;23.086;2023-11-21T05:44:59;20.48;;;12.75;;
37943;SDS011;23767;42.024;23.086;2023-11-21T05:47:45;20.58;;;11.80;;
37943;SDS011;23767;42.024;23.086;2023-11-21T05:50:12;17.95;;;11.90;;
37943;SDS011;23767;42.024;23.086;2023-11-21T05:52:39;20.92;;;11.77;;
37943;SDS011;23767;42.024;23.086;2023-11-21T05:55:05;17.02;;;11.68;;
37943;SDS011;23767;42.024;23.086;2023-11-21T05:57:35;22.48;;;12.20;;
37943;SDS011;23767;42.024;23.086;2023-11-21T06:00:08;20.60;;;12.45;;
37943;SDS011;23767;42.024;23.086;2023-11-21T06:02:55;19.25;;;11.63;;
37943;SDS011;23767;42.024;23.086;2023-11-21T06:05:23;21.60;;;12.20;;
37943;SDS011;23767;42.024;23.086;2023-11-21T06:07:50;20.67;;;11.25;;
37943;SDS011;23767;42.024;23.086;2023-11-21T06:10:17;21.17;;;12.15;;
37943;SDS011;23767;42.024;23.086;2023-11-21T06:12:44;18.48;;;11.98;;
37943;SDS011;23767;42.024;23.086;2023-11-21T06:15:10;20.00;;;12.32;;
37943;SDS011;23767;42.024;23.086;2023-11-21T06:17:40;24.60;;;14.02;;
37943;SDS011;23767;42.024;23.086;2023-11-21T06:20:07;24.65;;;13.55;;
37943;SDS011;23767;42.024;23.086;2023-11-21T06:22:39;28.27;;;14.95;;
37943;SDS011;23767;42.024;23.086;2023-11-21T06:25:06;23.52;;;14.60;;
37943;SDS011;23767;42.024;23.086;2023-11-21T06:27:33;23.13;;;14.20;;
37943;SDS011;23767;42.024;23.086;2023-11-21T06:29:59;21.30;;;13.13;;
37943;SDS011;23767;42.024;23.086;2023-11-21T06:32:25;21.00;;;13.15;;
37943;SDS011;23767;42.024;23.086;2023-11-21T06:34:51;21.88;;;13.00;;
37943;SDS011;23767;42.024;23.086;2023-11-21T06:37:20;23.38;;;13.43;;
37943;SDS011;23767;42.024;23.086;2023-11-21T06:39:51;24.90;;;13.75;;
37943;SDS011;23767;42.024;23.086;2023-11-21T06:42:17;25.80;;;13.82;;
37943;SDS011;23767;42.024;23.086;2023-11-21T06:44:44;21.90;;;13.32;;
37943;SDS011;23767;42.024;23.086;2023-11-21T06:47:10;22.42;;;12.45;;
37943;SDS011;23767;42.024;23.086;2023-11-21T06:49:37;24.42;;;14.15;;
37943;SDS011;23767;42.024;23.086;2023-11-21T06:52:06;24.58;;;13.18;;
37943;SDS011;23767;42.024;23.086;2023-11-21T06:54:33;22.10;;;12.68;;
37943;SDS011;23767;42.024;23.086;2023-11-21T06:56:59;23.98;;;12.65;;
37943;SDS011;23767;42.024;23.086;2023-11-21T06:59:25;23.08;;;13.23;;
37943;SDS011;23767;42.024;23.086;2023-11-21T07:01:51;20.15;;;12.85;;
37943;SDS011;23767;42.024;23.086;2023-11-21T07:04:17;19.50;;;13.60;;
37943;SDS011;23767;42.024;23.086;2023-11-21T07:06:43;24.50;;;13.13;;
37943;SDS011;23767;42.024;23.086;2023-11-21T07:09:09;18.77;;;10.65;;
37943;SDS011;23767;42.024;23.086;2023-11-21T07:11:36;17.75;;;11.23;;
37943;SDS011;23767;42.024;23.086;2023-11-21T07:14:03;18.40;;;11.13;;
37943;SDS011;23767;42.024;23.086;2023-11-21T07:16:35;17.52;;;11.43;;
37943;SDS011;23767;42.024;23.086;2023-11-21T07:19:05;17.35;;;11.70;;
37943;SDS011;23767;42.024;23.086;2023-11-21T07:21:35;22.25;;;15.10;;
37943;SDS011;23767;42.024;23.086;2023-11-21T07:24:02;23.27;;;16.42;;
37943;SDS011;23767;42.024;23.086;2023-11-21T07:26:28;28.42;;;19.23;;
37943;SDS011;23767;42.024;23.086;2023-11-21T07:28:54;33.55;;;22.13;;
37943;SDS011;23767;42.024;23.086;2023-11-21T07:31:23;58.85;;;37.85;;
37943;SDS011;23767;42.024;23.086;2023-11-21T07:33:49;35.65;;;24.40;;
37943;SDS011;23767;42.024;23.086;2023-11-21T07:36:16;32.80;;;23.35;;
37943;SDS011;23767;42.024;23.086;2023-11-21T07:38:49;37.33;;;27.08;;
37943;SDS011;23767;42.024;23.086;2023-11-21T07:41:15;64.78;;;50.95;;
37943;SDS011;23767;42.024;23.086;2023-11-21T07:43:42;42.72;;;35.60;;
37943;SDS011;23767;42.024;23.086;2023-11-21T07:46:09;20.92;;;15.50;;
37943;SDS011;23767;42.024;23.086;2023-11-21T07:48:37;21.27;;;14.25;;
37943;SDS011;23767;42.024;23.086;2023-11-21T07:51:03;20.88;;;14.38;;
37943;SDS011;23767;42.024;23.086;2023-11-21T07:53:29;21.08;;;13.35;;
37943;SDS011;23767;42.024;23.086;2023-11-21T07:55:56;19.48;;;12.82;;
37943;SDS011;23767;42.024;23.086;2023-11-21T07:58:22;19.10;;;13.68;;
37943;SDS011;23767;42.024;23.086;2023-11-21T08:00:49;20.00;;;11.57;;
37943;SDS011;23767;42.024;23.086;2023-11-21T08:03:15;19.40;;;12.60;;
37943;SDS011;23767;42.024;23.086;2023-11-21T08:05:41;16.48;;;11.18;;
37943;SDS011;23767;42.024;23.086;2023-11-21T08:08:07;17.02;;;11.27;;
37943;SDS011;23767;42.024;23.086;2023-11-21T08:10:33;19.23;;;12.23;;
37943;SDS011;23767;42.024;23.086;2023-11-21T08:13:00;16.65;;;11.48;;
37943;SDS011;23767;42.024;23.086;2023-11-21T08:15:26;19.25;;;12.25;;
37943;SDS011;23767;42.024;23.086;2023-11-21T08:17:53;26.73;;;16.15;;
37943;SDS011;23767;42.024;23.086;2023-11-21T08:20:19;18.05;;;12.48;;
37943;SDS011;23767;42.024;23.086;2023-11-21T08:22:45;19.98;;;13.23;;
37943;SDS011;23767;42.024;23.086;2023-11-21T08:25:12;15.07;;;10.23;;
37943;SDS011;23767;42.024;23.086;2023-11-21T08:27:38;16.88;;;10.27;;
37943;SDS011;23767;42.024;23.086;2023-11-21T08:30:06;16.67;;;10.75;;
37943;SDS011;23767;42.024;23.086;2023-11-21T08:32:32;15.00;;;10.27;;
37943;SDS011;23767;42.024;23.086;2023-11-21T08:34:58;16.73;;;10.85;;
37943;SDS011;23767;42.024;23.086;2023-11-21T08:37:24;14.35;;;10.60;;
37943;SDS011;23767;42.024;23.086;2023-11-21T08:39:52;13.65;;;10.18;;
37943;SDS011;23767;42.024;23.086;2023-11-21T08:42:18;16.40;;;11.13;;
37943;SDS011;23767;42.024;23.086;2023-11-21T08:44:45;14.77;;;9.43;;
37943;SDS011;23767;42.024;23.086;2023-11-21T08:47:11;17.17;;;11.10;;
37943;SDS011;23767;42.024;23.086;2023-11-21T08:49:38;19.10;;;10.25;;
37943;SDS011;23767;42.024;23.086;2023-11-21T08:52:04;16.80;;;10.18;;
37943;SDS011;23767;42.024;23.086;2023-11-21T08:54:30;18.63;;;10.57;;
37943;SDS011;23767;42.024;23.086;2023-11-21T08:56:56;18.88;;;12.05;;
37943;SDS011;23767;42.024;23.086;2023-11-21T08:59:25;21.55;;;11.93;;
37943;SDS011;23767;42.024;23.086;2023-11-21T09:01:51;19.10;;;12.10;;
37943;SDS011;23767;42.024;23.086;2023-11-21T09:04:18;18.30;;;11.45;;
37943;SDS011;23767;42.024;23.086;2023-11-21T09:06:44;20.27;;;12.40;;
37943;SDS011;23767;42.024;23.086;2023-11-21T09:09:10;22.05;;;12.20;;
37943;SDS011;23767;42.024;23.086;2023-11-21T09:11:36;17.95;;;12.02;;
37943;SDS011;23767;42.024;23.086;2023-11-21T09:14:03;22.50;;;12.38;;
37943;SDS011;23767;42.024;23.086;2023-11-21T09:16:29;20.90;;;12.35;;
37943;SDS011;23767;42.024;23.086;2023-11-21T09:18:55;23.33;;;13.82;;
37943;SDS011;23767;42.024;23.086;2023-11-21T09:21:21;20.70;;;13.68;;
37943;SDS011;23767;42.024;23.086;2023-11-21T09:23:48;22.13;;;14.80;;
37943;SDS011;23767;42.024;23.086;2023-11-21T09:26:14;20.92;;;13.68;;
37943;SDS011;23767;42.024;23.086;2023-11-21T09:28:41;20.15;;;12.23;;
37943;SDS011;23767;42.024;23.086;2023-11-21T09:31:11;20.70;;;13.38;;
37943;SDS011;23767;42.024;23.086;2023-11-21T09:33:37;22.40;;;12.77;;
37943;SDS011;23767;42.024;23.086;2023-11-21T09:36:04;21.90;;;12.70;;
37943;SDS011;23767;42.024;23.086;2023-11-21T09:38:30;17.73;;;11.88;;
37943;SDS011;23767;42.024;23.086;2023-11-21T09:40:56;18.90;;;10.15;;
37943;SDS011;23767;42.024;23.086;2023-11-21T09:43:23;16.90;;;9.07;;
37943;SDS011;23767;42.024;23.086;2023-11-21T09:45:56;16.02;;;9.63;;
37943;SDS011;23767;42.024;23.086;2023-11-21T09:48:25;16.90;;;9.30;;
37943;SDS011;23767;42.024;23.086;2023-11-21T09:50:51;16.08;;;9.65;;
37943;SDS011;23767;42.024;23.086;2023-11-21T09:53:20;16.55;;;8.60;;
37943;SDS011;23767;42.024;23.086;2023-11-21T09:55:47;14.68;;;9.30;;
37943;SDS011;23767;42.024;23.086;2023-11-21T09:58:13;18.00;;;10.88;;
37943;SDS011;23767;42.024;23.086;2023-11-21T10:00:40;14.50;;;10.40;;
37943;SDS011;23767;42.024;23.086;2023-11-21T10:03:07;14.38;;;10.38;;
37943;SDS011;23767;42.024;23.086;2023-11-21T10:05:34;16.63;;;10.05;;
37943;SDS011;23767;42.024;23.086;2023-11-21T10:08:00;13.95;;;10.30;;
37943;SDS011;23767;42.024;23.086;2023-11-21T10:10:26;20.92;;;11.07;;
37943;SDS011;23767;42.024;23.086;2023-11-21T10:12:56;17.48;;;10.73;;
37943;SDS011;23767;42.024;23.086;2023-11-21T10:15:23;19.63;;;12.90;;
37943;SDS011;23767;42.024;23.086;2023-11-21T10:17:53;17.35;;;11.30;;
37943;SDS011;23767;42.024;23.086;2023-11-21T10:20:20;18.35;;;11.23;;
37943;SDS011;23767;42.024;23.086;2023-11-21T10:22:46;16.98;;;11.65;;
37943;SDS011;23767;42.024;23.086;2023-11-21T10:25:12;16.08;;;9.27;;
37943;SDS011;23767;42.024;23.086;2023-11-21T10:27:39;16.13;;;10.38;;
37943;SDS011;23767;42.024;23.086;2023-11-21T10:30:07;20.60;;;10.68;;
37943;SDS011;23767;42.024;23.086;2023-11-21T10:32:37;19.95;;;10.40;;
37943;SDS011;23767;42.024;23.086;2023-11-21T10:35:03;19.95;;;11.48;;
37943;SDS011;23767;42.024;23.086;2023-11-21T10:37:35;20.80;;;12.20;;
37943;SDS011;23767;42.024;23.086;2023-11-21T10:40:01;19.15;;;10.98;;
37943;SDS011;23767;42.024;23.086;2023-11-21T10:42:30;20.60;;;10.52;;
37943;SDS011;23767;42.024;23.086;2023-11-21T10:44:57;14.95;;;9.32;;
37943;SDS011;23767;42.024;23.086;2023-11-21T10:47:23;16.08;;;9.90;;
37943;SDS011;23767;42.024;23.086;2023-11-21T10:49:51;15.02;;;9.15;;
37943;SDS011;23767;42.024;23.086;2023-11-21T10:52:21;17.65;;;9.05;;
37943;SDS011;23767;42.024;23.086;2023-11-21T10:54:47;25.50;;;11.73;;
37943;SDS011;23767;42.024;23.086;2023-11-21T10:57:18;21.85;;;12.05;;
37943;SDS011;23767;42.024;23.086;2023-11-21T10:59:46;28.02;;;13.65;;
37943;SDS011;23767;42.024;23.086;2023-11-21T11:02:23;25.25;;;12.18;;
37943;SDS011;23767;42.024;23.086;2023-11-21T11:04:53;17.83;;;10.30;;
37943;SDS011;23767;42.024;23.086;2023-11-21T11:07:26;19.48;;;11.02;;
37943;SDS011;23767;42.024;23.086;2023-11-21T11:09:55;17.67;;;10.98;;
37943;SDS011;23767;42.024;23.086;2023-11-21T11:12:21;20.75;;;11.52;;
37943;SDS011;23767;42.024;23.086;2023-11-21T11:14:48;21.15;;;10.85;;
37943;SDS011;23767;42.024;23.086;2023-11-21T11:17:14;23.25;;;11.77;;
37943;SDS011;23767;42.024;23.086;2023-11-21T11:19:41;19.08;;;11.30;;
37943;SDS011;23767;42.024;23.086;2023-11-21T11:24:40;14.95;;;8.95;;
37943;SDS011;23767;42.024;23.086;2023-11-21T11:30:47;13.70;;;9.02;;
37943;SDS011;23767;42.024;23.086;2023-11-21T11:35:17;18.15;;;11.40;;
37943;SDS011;23767;42.024;23.086;2023-11-21T11:37:45;20.00;;;12.07;;
37943;SDS011;23767;42.024;23.086;2023-11-21T11:40:11;17.92;;;11.30;;
37943;SDS011;23767;42.024;23.086;2023-11-21T11:42:37;21.73;;;11.55;;
37943;SDS011;23767;42.024;23.086;2023-11-21T11:45:17;15.80;;;10.82;;
37943;SDS011;23767;42.024;23.086;2023-11-21T11:47:44;17.35;;;10.07;;
37943;SDS011;23767;42.024;23.086;2023-11-21T11:50:13;20.02;;;12.45;;
37943;SDS011;23767;42.024;23.086;2023-11-21T11:52:48;20.92;;;12.82;;
37943;SDS011;23767;42.024;23.086;2023-11-21T11:55:20;19.15;;;13.25;;
37943;SDS011;23767;42.024;23.086;2023-11-21T11:57:53;19.38;;;12.82;;
37943;SDS011;23767;42.024;23.086;2023-11-21T12:05:20;18.40;;;10.80;;
37943;SDS011;23767;42.024;23.086;2023-11-21T12:10:13;15.60;;;9.80;;
37943;SDS011;23767;42.024;23.086;2023-11-21T12:12:42;15.77;;;9.02;;
37943;SDS011;23767;42.024;23.086;2023-11-21T12:15:09;16.27;;;10.25;;
37943;SDS011;23767;42.024;23.086;2023-11-21T12:17:35;15.57;;;10.18;;
37943;SDS011;23767;42.024;23.086;2023-11-21T12:20:02;22.00;;;10.57;;
37943;SDS011;23767;42.024;23.086;2023-11-21T12:22:39;16.13;;;10.43;;
37943;SDS011;23767;42.024;23.086;2023-11-21T12:25:06;20.98;;;11.93;;
37943;SDS011;23767;42.024;23.086;2023-11-21T12:27:32;19.52;;;11.70;;
37943;SDS011;23767;42.024;23.086;2023-11-21T12:29:58;23.25;;;13.05;;
37943;SDS011;23767;42.024;23.086;2023-11-21T12:32:24;17.08;;;12.35;;
37943;SDS011;23767;42.024;23.086;2023-11-21T12:34:51;17.95;;;11.43;;
37943;SDS011;23767;42.024;23.086;2023-11-21T12:37:17;17.70;;;13.00;;
37943;SDS011;23767;42.024;23.086;2023-11-21T12:39:43;17.50;;;10.55;;
37943;SDS011;23767;42.024;23.086;2023-11-21T12:42:10;18.30;;;10.00;;
37943;SDS011;23767;42.024;23.086;2023-11-21T12:44:36;14.77;;;9.18;;
37943;SDS011;23767;42.024;23.086;2023-11-21T12:47:06;14.18;;;9.18;;
37943;SDS011;23767;42.024;23.086;2023-11-21T12:49:32;15.23;;;8.13;;
37943;SDS011;23767;42.024;23.086;2023-11-21T12:51:59;11.65;;;6.97;;
37943;SDS011;23767;42.024;23.086;2023-11-21T12:54:25;13.52;;;7.88;;
37943;SDS011;23767;42.024;23.086;2023-11-21T12:56:51;15.02;;;8.90;;
37943;SDS011;23767;42.024;23.086;2023-11-21T12:59:17;14.10;;;8.75;;
37943;SDS011;23767;42.024;23.086;2023-11-21T13:01:43;15.80;;;9.23;;
37943;SDS011;23767;42.024;23.086;2023-11-21T13:04:11;15.32;;;9.65;;
37943;SDS011;23767;42.024;23.086;2023-11-21T13:06:37;16.30;;;9.73;;
37943;SDS011;23767;42.024;23.086;2023-11-21T13:09:09;20.38;;;9.18;;
37943;SDS011;23767;42.024;23.086;2023-11-21T13:11:36;10.10;;;5.50;;
37943;SDS011;23767;42.024;23.086;2023-11-21T13:14:02;7.13;;;3.47;;
37943;SDS011;23767;42.024;23.086;2023-11-21T13:16:28;6.45;;;3.47;;
37943;SDS011;23767;42.024;23.086;2023-11-21T13:18:56;9.00;;;4.50;;
37943;SDS011;23767;42.024;23.086;2023-11-21T13:21:23;6.78;;;3.35;;
37943;SDS011;23767;42.024;23.086;2023-11-21T13:23:49;8.20;;;3.35;;
37943;SDS011;23767;42.024;23.086;2023-11-21T13:26:17;7.40;;;3.47;;
37943;SDS011;23767;42.024;23.086;2023-11-21T13:28:45;7.35;;;4.05;;
37943;SDS011;23767;42.024;23.086;2023-11-21T13:31:12;8.60;;;3.83;;
37943;SDS011;23767;42.024;23.086;2023-11-21T13:33:51;8.80;;;4.78;;
37943;SDS011;23767;42.024;23.086;2023-11-21T13:36:24;7.85;;;3.33;;
37943;SDS011;23767;42.024;23.086;2023-11-21T13:38:50;5.45;;;3.17;;
37943;SDS011;23767;42.024;23.086;2023-11-21T13:41:18;7.03;;;3.40;;
37943;SDS011;23767;42.024;23.086;2023-11-21T13:43:44;9.75;;;5.10;;
37943;SDS011;23767;42.024;23.086;2023-11-21T13:46:17;11.38;;;5.15;;
37943;SDS011;23767;42.024;23.086;2023-11-21T13:48:47;7.88;;;4.35;;
37943;SDS011;23767;42.024;23.086;2023-11-21T13:51:18;8.27;;;3.95;;
37943;SDS011;23767;42.024;23.086;2023-11-21T13:53:46;7.95;;;3.97;;
37943;SDS011;23767;42.024;23.086;2023-11-21T13:56:17;7.07;;;3.30;;
37943;SDS011;23767;42.024;23.086;2023-11-21T13:58:48;6.00;;;3.53;;
37943;SDS011;23767;42.024;23.086;2023-11-21T14:01:22;6.22;;;3.35;;
37943;SDS011;23767;42.024;23.086;2023-11-21T14:03:55;7.60;;;3.00;;
37943;SDS011;23767;42.024;23.086;2023-11-21T14:06:45;6.80;;;3.03;;
37943;SDS011;23767;42.024;23.086;2023-11-21T14:09:15;8.00;;;3.50;;
37943;SDS011;23767;42.024;23.086;2023-11-21T14:14:21;8.82;;;3.45;;
37943;SDS011;23767;42.024;23.086;2023-11-21T14:16:47;6.88;;;3.70;;
37943;SDS011;23767;42.024;23.086;2023-11-21T14:19:13;6.45;;;3.75;;
37943;SDS011;23767;42.024;23.086;2023-11-21T14:21:43;8.98;;;4.20;;
37943;SDS011;23767;42.024;23.086;2023-11-21T14:24:09;7.22;;;3.92;;
37943;SDS011;23767;42.024;23.086;2023-11-21T14:26:37;7.03;;;4.65;;
37943;SDS011;23767;42.024;23.086;2023-11-21T14:29:03;7.78;;;4.47;;
37943;SDS011;23767;42.024;23.086;2023-11-21T14:31:30;7.68;;;4.20;;
37943;SDS011;23767;42.024;23.086;2023-11-21T14:33:57;8.40;;;4.45;;